sensor_id;sensor_type;location;lat;lon;timestamp;P1;durP1;ratioP1;P2;durP2;ratioP2
31978;SDS011;18502;43.574;1.276;2022-09-09T00:00:53;3.88;;;1.35;;
31978;SDS011;18502;43.574;1.276;2022-09-09T00:03:31;6.63;;;1.55;;
31978;SDS011;18502;43.574;1.276;2022-09-09T00:06:14;5.90;;;1.60;;
31978;SDS011;18502;43.574;1.276;2022-09-09T00:11:17;5.45;;;1.65;;
31978;SDS011;18502;43.574;1.276;2022-09-09T00:13:54;5.60;;;2.35;;
31978;SDS011;18502;43.574;1.276;2022-09-09T00:16:25;10.93;;;2.28;;
31978;SDS011;18502;43.574;1.276;2022-09-09T00:22:22;6.45;;;1.90;;
31978;SDS011;18502;43.574;1.276;2022-09-09T00:24:41;6.60;;;1.77;;
31978;SDS011;18502;43.574;1.276;2022-09-09T00:27:25;5.93;;;1.77;;
31978;SDS011;18502;43.574;1.276;2022-09-09T00:32:54;7.45;;;1.65;;
31978;SDS011;18502;43.574;1.276;2022-09-09T00:35:29;6.63;;;1.90;;
31978;SDS011;18502;43.574;1.276;2022-09-09T00:38:05;5.57;;;1.85;;
31978;SDS011;18502;43.574;1.276;2022-09-09T00:43:33;3.72;;;1.35;;
31978;SDS011;18502;43.574;1.276;2022-09-09T00:48:36;3.58;;;1.20;;
31978;SDS011;18502;43.574;1.276;2022-09-09T00:51:15;3.88;;;1.38;;
31978;SDS011;18502;43.574;1.276;2022-09-09T00:56:31;4.28;;;1.33;;
31978;SDS011;18502;43.574;1.276;2022-09-09T00:59:25;4.35;;;1.25;;
31978;SDS011;18502;43.574;1.276;2022-09-09T01:02:01;12.68;;;1.92;;
31978;SDS011;18502;43.574;1.276;2022-09-09T01:04:38;2.40;;;1.20;;
31978;SDS011;18502;43.574;1.276;2022-09-09T01:07:07;3.97;;;1.38;;
31978;SDS011;18502;43.574;1.276;2022-09-09T01:10:00;2.10;;;1.10;;
31978;SDS011;18502;43.574;1.276;2022-09-09T01:15:10;4.00;;;1.48;;
31978;SDS011;18502;43.574;1.276;2022-09-09T01:20:25;2.78;;;1.02;;
31978;SDS011;18502;43.574;1.276;2022-09-09T01:28:32;2.53;;;1.20;;
31978;SDS011;18502;43.574;1.276;2022-09-09T01:31:02;4.72;;;1.27;;
31978;SDS011;18502;43.574;1.276;2022-09-09T01:33:30;5.72;;;1.20;;
31978;SDS011;18502;43.574;1.276;2022-09-09T01:36:04;5.05;;;1.10;;
31978;SDS011;18502;43.574;1.276;2022-09-09T01:38:36;3.10;;;0.98;;
31978;SDS011;18502;43.574;1.276;2022-09-09T01:41:02;3.88;;;1.17;;
31978;SDS011;18502;43.574;1.276;2022-09-09T01:43:28;3.40;;;1.30;;
31978;SDS011;18502;43.574;1.276;2022-09-09T01:45:55;3.28;;;1.17;;
31978;SDS011;18502;43.574;1.276;2022-09-09T01:48:24;4.40;;;1.75;;
31978;SDS011;18502;43.574;1.276;2022-09-09T01:50:50;2.58;;;1.20;;
31978;SDS011;18502;43.574;1.276;2022-09-09T01:53:17;4.82;;;1.27;;
31978;SDS011;18502;43.574;1.276;2022-09-09T01:55:47;4.63;;;1.35;;
31978;SDS011;18502;43.574;1.276;2022-09-09T01:58:22;2.40;;;1.02;;
31978;SDS011;18502;43.574;1.276;2022-09-09T02:01:30;7.03;;;1.42;;
31978;SDS011;18502;43.574;1.276;2022-09-09T02:09:23;2.13;;;1.10;;
31978;SDS011;18502;43.574;1.276;2022-09-09T02:11:53;4.25;;;1.15;;
31978;SDS011;18502;43.574;1.276;2022-09-09T02:14:27;4.03;;;1.27;;
31978;SDS011;18502;43.574;1.276;2022-09-09T02:17:02;2.60;;;1.30;;
31978;SDS011;18502;43.574;1.276;2022-09-09T02:19:45;3.15;;;1.30;;
31978;SDS011;18502;43.574;1.276;2022-09-09T02:22:17;2.97;;;0.90;;
31978;SDS011;18502;43.574;1.276;2022-09-09T02:24:46;5.13;;;1.20;;
31978;SDS011;18502;43.574;1.276;2022-09-09T02:27:12;5.32;;;1.00;;
31978;SDS011;18502;43.574;1.276;2022-09-09T02:29:41;2.55;;;1.10;;
31978;SDS011;18502;43.574;1.276;2022-09-09T02:32:19;5.30;;;1.70;;
31978;SDS011;18502;43.574;1.276;2022-09-09T02:34:52;5.70;;;1.05;;
31978;SDS011;18502;43.574;1.276;2022-09-09T02:37:21;5.53;;;1.35;;
31978;SDS011;18502;43.574;1.276;2022-09-09T02:39:53;4.45;;;1.20;;
31978;SDS011;18502;43.574;1.276;2022-09-09T02:42:19;8.13;;;1.25;;
31978;SDS011;18502;43.574;1.276;2022-09-09T02:44:45;5.78;;;1.45;;
31978;SDS011;18502;43.574;1.276;2022-09-09T02:50:01;2.80;;;1.35;;
31978;SDS011;18502;43.574;1.276;2022-09-09T02:52:59;4.57;;;1.75;;
31978;SDS011;18502;43.574;1.276;2022-09-09T02:55:54;4.47;;;1.17;;
31978;SDS011;18502;43.574;1.276;2022-09-09T02:58:34;7.82;;;1.50;;
31978;SDS011;18502;43.574;1.276;2022-09-09T03:01:01;2.70;;;0.90;;
31978;SDS011;18502;43.574;1.276;2022-09-09T03:03:27;5.82;;;1.52;;
31978;SDS011;18502;43.574;1.276;2022-09-09T03:05:54;4.28;;;1.27;;
31978;SDS011;18502;43.574;1.276;2022-09-09T03:08:19;6.43;;;1.63;;
31978;SDS011;18502;43.574;1.276;2022-09-09T03:10:45;4.43;;;1.20;;
31978;SDS011;18502;43.574;1.276;2022-09-09T03:13:11;4.13;;;1.40;;
31978;SDS011;18502;43.574;1.276;2022-09-09T03:15:40;3.13;;;1.25;;
31978;SDS011;18502;43.574;1.276;2022-09-09T03:18:06;3.90;;;1.05;;
31978;SDS011;18502;43.574;1.276;2022-09-09T03:20:32;3.13;;;1.30;;
31978;SDS011;18502;43.574;1.276;2022-09-09T03:22:59;4.10;;;1.25;;
31978;SDS011;18502;43.574;1.276;2022-09-09T03:25:25;5.43;;;1.10;;
31978;SDS011;18502;43.574;1.276;2022-09-09T03:27:51;3.72;;;1.55;;
31978;SDS011;18502;43.574;1.276;2022-09-09T03:30:20;4.10;;;1.17;;
31978;SDS011;18502;43.574;1.276;2022-09-09T03:32:47;3.45;;;0.90;;
31978;SDS011;18502;43.574;1.276;2022-09-09T03:35:13;2.70;;;1.50;;
31978;SDS011;18502;43.574;1.276;2022-09-09T03:37:39;5.45;;;1.75;;
31978;SDS011;18502;43.574;1.276;2022-09-09T03:40:04;6.45;;;1.23;;
31978;SDS011;18502;43.574;1.276;2022-09-09T03:42:31;3.65;;;1.17;;
31978;SDS011;18502;43.574;1.276;2022-09-09T03:44:57;4.95;;;1.63;;
31978;SDS011;18502;43.574;1.276;2022-09-09T03:47:24;3.25;;;1.08;;
31978;SDS011;18502;43.574;1.276;2022-09-09T03:49:50;4.63;;;1.27;;
31978;SDS011;18502;43.574;1.276;2022-09-09T03:52:15;5.30;;;1.27;;
31978;SDS011;18502;43.574;1.276;2022-09-09T03:54:41;6.63;;;1.45;;
31978;SDS011;18502;43.574;1.276;2022-09-09T03:57:08;6.35;;;1.40;;
31978;SDS011;18502;43.574;1.276;2022-09-09T03:59:35;3.20;;;1.65;;
31978;SDS011;18502;43.574;1.276;2022-09-09T04:02:01;3.65;;;1.58;;
31978;SDS011;18502;43.574;1.276;2022-09-09T04:04:27;2.85;;;1.00;;
31978;SDS011;18502;43.574;1.276;2022-09-09T04:06:53;7.03;;;1.60;;
31978;SDS011;18502;43.574;1.276;2022-09-09T04:09:18;1.83;;;1.20;;
31978;SDS011;18502;43.574;1.276;2022-09-09T04:11:44;2.67;;;1.20;;
31978;SDS011;18502;43.574;1.276;2022-09-09T04:14:11;4.00;;;1.20;;
31978;SDS011;18502;43.574;1.276;2022-09-09T04:16:37;2.97;;;1.30;;
31978;SDS011;18502;43.574;1.276;2022-09-09T04:19:04;6.53;;;1.65;;
31978;SDS011;18502;43.574;1.276;2022-09-09T04:21:30;4.97;;;1.30;;
31978;SDS011;18502;43.574;1.276;2022-09-09T04:23:56;3.80;;;1.10;;
31978;SDS011;18502;43.574;1.276;2022-09-09T04:26:22;5.90;;;1.52;;
31978;SDS011;18502;43.574;1.276;2022-09-09T04:28:47;7.55;;;1.65;;
31978;SDS011;18502;43.574;1.276;2022-09-09T04:31:18;7.85;;;1.65;;
31978;SDS011;18502;43.574;1.276;2022-09-09T04:33:46;4.53;;;2.17;;
31978;SDS011;18502;43.574;1.276;2022-09-09T04:36:12;5.03;;;2.17;;
31978;SDS011;18502;43.574;1.276;2022-09-09T04:38:38;5.60;;;2.30;;
31978;SDS011;18502;43.574;1.276;2022-09-09T04:41:05;10.43;;;2.42;;
31978;SDS011;18502;43.574;1.276;2022-09-09T04:43:31;6.35;;;2.20;;
31978;SDS011;18502;43.574;1.276;2022-09-09T04:45:57;7.63;;;2.75;;
31978;SDS011;18502;43.574;1.276;2022-09-09T04:48:24;15.52;;;3.05;;
31978;SDS011;18502;43.574;1.276;2022-09-09T04:50:56;4.53;;;2.20;;
31978;SDS011;18502;43.574;1.276;2022-09-09T04:53:24;10.20;;;2.53;;
31978;SDS011;18502;43.574;1.276;2022-09-09T04:55:51;4.40;;;1.55;;
31978;SDS011;18502;43.574;1.276;2022-09-09T04:58:26;5.72;;;1.65;;
31978;SDS011;18502;43.574;1.276;2022-09-09T05:00:52;4.50;;;1.70;;
31978;SDS011;18502;43.574;1.276;2022-09-09T05:03:17;5.95;;;1.98;;
31978;SDS011;18502;43.574;1.276;2022-09-09T05:05:44;3.03;;;1.33;;
31978;SDS011;18502;43.574;1.276;2022-09-09T05:08:10;3.35;;;1.35;;
31978;SDS011;18502;43.574;1.276;2022-09-09T05:10:37;6.25;;;1.55;;
31978;SDS011;18502;43.574;1.276;2022-09-09T05:13:04;6.03;;;1.88;;
31978;SDS011;18502;43.574;1.276;2022-09-09T05:15:31;5.38;;;2.00;;
31978;SDS011;18502;43.574;1.276;2022-09-09T05:17:58;8.52;;;1.75;;
31978;SDS011;18502;43.574;1.276;2022-09-09T05:20:25;6.72;;;1.77;;
31978;SDS011;18502;43.574;1.276;2022-09-09T05:22:54;3.97;;;1.30;;
31978;SDS011;18502;43.574;1.276;2022-09-09T05:25:20;5.32;;;1.65;;
31978;SDS011;18502;43.574;1.276;2022-09-09T05:27:47;4.47;;;1.75;;
31978;SDS011;18502;43.574;1.276;2022-09-09T05:30:14;6.13;;;1.80;;
31978;SDS011;18502;43.574;1.276;2022-09-09T05:32:39;6.57;;;1.98;;
31978;SDS011;18502;43.574;1.276;2022-09-09T05:35:06;5.10;;;2.25;;
31978;SDS011;18502;43.574;1.276;2022-09-09T05:37:32;4.80;;;1.90;;
31978;SDS011;18502;43.574;1.276;2022-09-09T05:39:58;2.53;;;1.55;;
31978;SDS011;18502;43.574;1.276;2022-09-09T05:42:23;6.22;;;1.83;;
31978;SDS011;18502;43.574;1.276;2022-09-09T05:44:49;5.22;;;2.17;;
31978;SDS011;18502;43.574;1.276;2022-09-09T05:47:16;6.28;;;2.75;;
31978;SDS011;18502;43.574;1.276;2022-09-09T05:49:42;4.68;;;2.35;;
31978;SDS011;18502;43.574;1.276;2022-09-09T05:52:08;10.27;;;2.33;;
31978;SDS011;18502;43.574;1.276;2022-09-09T05:54:34;4.97;;;1.75;;
31978;SDS011;18502;43.574;1.276;2022-09-09T05:57:02;5.20;;;1.80;;
31978;SDS011;18502;43.574;1.276;2022-09-09T05:59:28;9.55;;;1.77;;
31978;SDS011;18502;43.574;1.276;2022-09-09T06:01:54;8.82;;;2.35;;
31978;SDS011;18502;43.574;1.276;2022-09-09T06:04:19;3.45;;;1.98;;
31978;SDS011;18502;43.574;1.276;2022-09-09T06:06:47;5.35;;;2.03;;
31978;SDS011;18502;43.574;1.276;2022-09-09T06:09:13;3.83;;;1.80;;
31978;SDS011;18502;43.574;1.276;2022-09-09T06:11:40;4.13;;;2.15;;
31978;SDS011;18502;43.574;1.276;2022-09-09T06:14:06;2.78;;;1.58;;
31978;SDS011;18502;43.574;1.276;2022-09-09T06:16:32;6.43;;;2.10;;
31978;SDS011;18502;43.574;1.276;2022-09-09T06:18:58;5.25;;;2.08;;
31978;SDS011;18502;43.574;1.276;2022-09-09T06:21:28;4.32;;;2.10;;
31978;SDS011;18502;43.574;1.276;2022-09-09T06:23:59;5.55;;;2.08;;
31978;SDS011;18502;43.574;1.276;2022-09-09T06:26:26;6.85;;;2.30;;
31978;SDS011;18502;43.574;1.276;2022-09-09T06:28:54;4.65;;;2.50;;
31978;SDS011;18502;43.574;1.276;2022-09-09T06:31:22;4.95;;;2.63;;
31978;SDS011;18502;43.574;1.276;2022-09-09T06:33:50;3.70;;;2.30;;
31978;SDS011;18502;43.574;1.276;2022-09-09T06:36:18;13.20;;;3.80;;
31978;SDS011;18502;43.574;1.276;2022-09-09T06:38:45;7.55;;;2.78;;
31978;SDS011;18502;43.574;1.276;2022-09-09T06:41:12;6.97;;;3.00;;
31978;SDS011;18502;43.574;1.276;2022-09-09T06:43:39;5.40;;;2.13;;
31978;SDS011;18502;43.574;1.276;2022-09-09T06:46:06;7.45;;;2.70;;
31978;SDS011;18502;43.574;1.276;2022-09-09T06:48:33;5.72;;;2.53;;
31978;SDS011;18502;43.574;1.276;2022-09-09T06:51:03;6.53;;;2.75;;
31978;SDS011;18502;43.574;1.276;2022-09-09T06:53:30;6.03;;;2.10;;
31978;SDS011;18502;43.574;1.276;2022-09-09T06:55:59;8.85;;;2.00;;
31978;SDS011;18502;43.574;1.276;2022-09-09T06:58:44;6.72;;;2.30;;
31978;SDS011;18502;43.574;1.276;2022-09-09T07:01:14;4.88;;;2.45;;
31978;SDS011;18502;43.574;1.276;2022-09-09T07:03:41;3.70;;;2.30;;
31978;SDS011;18502;43.574;1.276;2022-09-09T07:06:13;5.32;;;2.38;;
31978;SDS011;18502;43.574;1.276;2022-09-09T07:08:41;3.85;;;2.78;;
31978;SDS011;18502;43.574;1.276;2022-09-09T07:11:08;4.90;;;2.35;;
31978;SDS011;18502;43.574;1.276;2022-09-09T07:13:36;6.63;;;2.83;;
31978;SDS011;18502;43.574;1.276;2022-09-09T07:16:12;4.97;;;2.45;;
31978;SDS011;18502;43.574;1.276;2022-09-09T07:18:39;6.70;;;1.98;;
31978;SDS011;18502;43.574;1.276;2022-09-09T07:21:07;6.38;;;2.50;;
31978;SDS011;18502;43.574;1.276;2022-09-09T07:23:34;5.20;;;2.25;;
31978;SDS011;18502;43.574;1.276;2022-09-09T07:26:06;5.95;;;2.00;;
31978;SDS011;18502;43.574;1.276;2022-09-09T07:28:37;7.03;;;2.13;;
31978;SDS011;18502;43.574;1.276;2022-09-09T07:31:03;8.48;;;2.72;;
31978;SDS011;18502;43.574;1.276;2022-09-09T07:33:30;15.48;;;2.75;;
31978;SDS011;18502;43.574;1.276;2022-09-09T07:36:05;9.63;;;3.08;;
31978;SDS011;18502;43.574;1.276;2022-09-09T07:38:40;8.25;;;2.67;;
31978;SDS011;18502;43.574;1.276;2022-09-09T07:41:11;5.38;;;2.42;;
31978;SDS011;18502;43.574;1.276;2022-09-09T07:43:40;14.75;;;3.40;;
31978;SDS011;18502;43.574;1.276;2022-09-09T07:46:07;8.05;;;2.75;;
31978;SDS011;18502;43.574;1.276;2022-09-09T07:48:34;9.95;;;2.95;;
31978;SDS011;18502;43.574;1.276;2022-09-09T07:51:11;5.85;;;2.58;;
31978;SDS011;18502;43.574;1.276;2022-09-09T07:53:42;11.43;;;3.38;;
31978;SDS011;18502;43.574;1.276;2022-09-09T07:56:11;6.63;;;3.20;;
31978;SDS011;18502;43.574;1.276;2022-09-09T07:58:39;6.45;;;2.65;;
31978;SDS011;18502;43.574;1.276;2022-09-09T08:01:09;13.77;;;3.75;;
31978;SDS011;18502;43.574;1.276;2022-09-09T08:03:37;15.52;;;3.67;;
31978;SDS011;18502;43.574;1.276;2022-09-09T08:06:04;11.75;;;3.03;;
31978;SDS011;18502;43.574;1.276;2022-09-09T08:08:32;9.45;;;2.45;;
31978;SDS011;18502;43.574;1.276;2022-09-09T08:11:09;10.90;;;3.35;;
31978;SDS011;18502;43.574;1.276;2022-09-09T08:13:37;5.15;;;2.90;;
31978;SDS011;18502;43.574;1.276;2022-09-09T08:16:08;8.18;;;3.58;;
31978;SDS011;18502;43.574;1.276;2022-09-09T08:18:34;8.60;;;3.65;;
31978;SDS011;18502;43.574;1.276;2022-09-09T08:21:17;31.25;;;5.38;;
31978;SDS011;18502;43.574;1.276;2022-09-09T08:23:45;12.32;;;3.35;;
31978;SDS011;18502;43.574;1.276;2022-09-09T08:26:16;18.15;;;3.08;;
31978;SDS011;18502;43.574;1.276;2022-09-09T08:28:47;12.10;;;3.42;;
31978;SDS011;18502;43.574;1.276;2022-09-09T08:31:17;6.70;;;3.30;;
31978;SDS011;18502;43.574;1.276;2022-09-09T08:33:44;4.95;;;2.67;;
31978;SDS011;18502;43.574;1.276;2022-09-09T08:36:13;8.15;;;2.85;;
31978;SDS011;18502;43.574;1.276;2022-09-09T08:38:41;5.75;;;3.17;;
31978;SDS011;18502;43.574;1.276;2022-09-09T08:43:39;7.45;;;2.92;;
31978;SDS011;18502;43.574;1.276;2022-09-09T08:46:16;4.43;;;2.33;;
31978;SDS011;18502;43.574;1.276;2022-09-09T08:48:56;6.63;;;2.33;;
31978;SDS011;18502;43.574;1.276;2022-09-09T08:51:37;6.10;;;1.83;;
31978;SDS011;18502;43.574;1.276;2022-09-09T08:54:03;3.83;;;2.10;;
31978;SDS011;18502;43.574;1.276;2022-09-09T08:56:30;5.60;;;1.67;;
31978;SDS011;18502;43.574;1.276;2022-09-09T08:58:59;2.72;;;1.15;;
31978;SDS011;18502;43.574;1.276;2022-09-09T09:13:01;4.57;;;1.63;;
31978;SDS011;18502;43.574;1.276;2022-09-09T09:15:36;3.22;;;1.48;;
31978;SDS011;18502;43.574;1.276;2022-09-09T09:18:03;4.40;;;1.67;;
31978;SDS011;18502;43.574;1.276;2022-09-09T09:20:39;3.80;;;1.30;;
31978;SDS011;18502;43.574;1.276;2022-09-09T09:23:24;3.03;;;1.08;;
31978;SDS011;18502;43.574;1.276;2022-09-09T09:25:57;4.22;;;1.35;;
31978;SDS011;18502;43.574;1.276;2022-09-09T09:28:25;2.45;;;1.40;;
31978;SDS011;18502;43.574;1.276;2022-09-09T09:35:58;2.42;;;1.00;;
31978;SDS011;18502;43.574;1.276;2022-09-09T09:38:25;2.92;;;1.30;;
31978;SDS011;18502;43.574;1.276;2022-09-09T09:40:53;3.42;;;0.90;;
31978;SDS011;18502;43.574;1.276;2022-09-09T09:43:35;1.65;;;0.80;;
31978;SDS011;18502;43.574;1.276;2022-09-09T09:46:05;3.30;;;0.98;;
31978;SDS011;18502;43.574;1.276;2022-09-09T09:48:43;3.22;;;0.90;;
31978;SDS011;18502;43.574;1.276;2022-09-09T09:51:12;2.72;;;1.10;;
31978;SDS011;18502;43.574;1.276;2022-09-09T09:56:08;5.22;;;0.90;;
31978;SDS011;18502;43.574;1.276;2022-09-09T10:01:21;1.10;;;0.88;;
31978;SDS011;18502;43.574;1.276;2022-09-09T10:03:51;3.20;;;1.10;;
31978;SDS011;18502;43.574;1.276;2022-09-09T10:06:17;3.75;;;1.15;;
31978;SDS011;18502;43.574;1.276;2022-09-09T10:09:24;3.20;;;1.08;;
31978;SDS011;18502;43.574;1.276;2022-09-09T10:17:28;3.67;;;0.98;;
31978;SDS011;18502;43.574;1.276;2022-09-09T10:22:35;2.70;;;1.13;;
31978;SDS011;18502;43.574;1.276;2022-09-09T10:36:58;5.15;;;1.25;;
31978;SDS011;18502;43.574;1.276;2022-09-09T10:39:35;2.83;;;1.10;;
31978;SDS011;18502;43.574;1.276;2022-09-09T10:42:14;2.97;;;0.80;;
31978;SDS011;18502;43.574;1.276;2022-09-09T10:44:49;5.13;;;1.27;;
31978;SDS011;18502;43.574;1.276;2022-09-09T10:52:59;5.72;;;1.20;;
31978;SDS011;18502;43.574;1.276;2022-09-09T10:55:43;3.40;;;1.23;;
31978;SDS011;18502;43.574;1.276;2022-09-09T10:58:20;3.58;;;1.17;;
31978;SDS011;18502;43.574;1.276;2022-09-09T11:00:56;2.97;;;1.30;;
31978;SDS011;18502;43.574;1.276;2022-09-09T11:03:28;6.78;;;1.42;;
31978;SDS011;18502;43.574;1.276;2022-09-09T11:06:04;5.18;;;1.20;;
31978;SDS011;18502;43.574;1.276;2022-09-09T11:08:35;4.25;;;1.48;;
31978;SDS011;18502;43.574;1.276;2022-09-09T11:11:18;4.47;;;1.50;;
31978;SDS011;18502;43.574;1.276;2022-09-09T11:16:57;6.40;;;1.30;;
31978;SDS011;18502;43.574;1.276;2022-09-09T11:19:35;6.28;;;1.77;;
31978;SDS011;18502;43.574;1.276;2022-09-09T11:24:53;5.20;;;1.08;;
31978;SDS011;18502;43.574;1.276;2022-09-09T11:30:19;5.85;;;1.67;;
31978;SDS011;18502;43.574;1.276;2022-09-09T11:35:37;3.83;;;1.02;;
31978;SDS011;18502;43.574;1.276;2022-09-09T11:41:05;7.50;;;1.70;;
31978;SDS011;18502;43.574;1.276;2022-09-09T11:43:44;5.95;;;2.47;;
31978;SDS011;18502;43.574;1.276;2022-09-09T11:46:12;7.15;;;1.90;;
31978;SDS011;18502;43.574;1.276;2022-09-09T11:48:41;3.78;;;1.05;;
31978;SDS011;18502;43.574;1.276;2022-09-09T11:51:11;6.35;;;1.52;;
31978;SDS011;18502;43.574;1.276;2022-09-09T11:53:51;5.30;;;1.08;;
31978;SDS011;18502;43.574;1.276;2022-09-09T12:01:27;6.40;;;1.15;;
31978;SDS011;18502;43.574;1.276;2022-09-09T12:12:35;3.45;;;1.30;;
31978;SDS011;18502;43.574;1.276;2022-09-09T12:17:52;3.17;;;1.08;;
31978;SDS011;18502;43.574;1.276;2022-09-09T12:34:38;5.95;;;0.95;;
31978;SDS011;18502;43.574;1.276;2022-09-09T12:37:08;4.60;;;1.05;;
31978;SDS011;18502;43.574;1.276;2022-09-09T12:39:57;2.70;;;1.00;;
31978;SDS011;18502;43.574;1.276;2022-09-09T12:42:25;7.78;;;1.35;;
31978;SDS011;18502;43.574;1.276;2022-09-09T12:44:58;4.65;;;0.98;;
31978;SDS011;18502;43.574;1.276;2022-09-09T12:47:27;7.75;;;1.17;;
31978;SDS011;18502;43.574;1.276;2022-09-09T12:50:02;4.05;;;1.02;;
31978;SDS011;18502;43.574;1.276;2022-09-09T12:52:33;2.67;;;0.82;;
31978;SDS011;18502;43.574;1.276;2022-09-09T12:55:04;3.42;;;0.90;;
31978;SDS011;18502;43.574;1.276;2022-09-09T12:57:35;7.00;;;1.38;;
31978;SDS011;18502;43.574;1.276;2022-09-09T13:00:22;5.47;;;0.90;;
31978;SDS011;18502;43.574;1.276;2022-09-09T13:02:53;7.25;;;1.55;;
31978;SDS011;18502;43.574;1.276;2022-09-09T13:05:22;9.43;;;1.85;;
31978;SDS011;18502;43.574;1.276;2022-09-09T13:07:50;4.25;;;0.95;;
31978;SDS011;18502;43.574;1.276;2022-09-09T13:10:21;5.65;;;1.30;;
31978;SDS011;18502;43.574;1.276;2022-09-09T13:12:54;7.03;;;1.55;;
31978;SDS011;18502;43.574;1.276;2022-09-09T13:15:23;2.67;;;0.90;;
31978;SDS011;18502;43.574;1.276;2022-09-09T13:17:59;6.00;;;1.23;;
31978;SDS011;18502;43.574;1.276;2022-09-09T13:20:35;3.50;;;0.73;;
31978;SDS011;18502;43.574;1.276;2022-09-09T13:23:02;5.25;;;1.52;;
31978;SDS011;18502;43.574;1.276;2022-09-09T13:25:28;6.50;;;1.30;;
31978;SDS011;18502;43.574;1.276;2022-09-09T13:27:58;3.88;;;1.10;;
31978;SDS011;18502;43.574;1.276;2022-09-09T13:30:31;4.50;;;1.30;;
31978;SDS011;18502;43.574;1.276;2022-09-09T13:35:51;4.95;;;1.10;;
31978;SDS011;18502;43.574;1.276;2022-09-09T13:38:22;3.70;;;0.98;;
31978;SDS011;18502;43.574;1.276;2022-09-09T13:40:57;4.68;;;1.10;;
31978;SDS011;18502;43.574;1.276;2022-09-09T13:43:27;4.68;;;1.02;;
31978;SDS011;18502;43.574;1.276;2022-09-09T13:45:58;4.28;;;1.42;;
31978;SDS011;18502;43.574;1.276;2022-09-09T13:48:26;6.65;;;1.17;;
31978;SDS011;18502;43.574;1.276;2022-09-09T13:50:56;4.07;;;1.45;;
31978;SDS011;18502;43.574;1.276;2022-09-09T13:53:26;6.25;;;1.27;;
31978;SDS011;18502;43.574;1.276;2022-09-09T13:55:53;7.35;;;1.48;;
31978;SDS011;18502;43.574;1.276;2022-09-09T13:58:19;4.15;;;1.30;;
31978;SDS011;18502;43.574;1.276;2022-09-09T14:00:46;5.38;;;1.25;;
31978;SDS011;18502;43.574;1.276;2022-09-09T14:03:12;3.17;;;1.00;;
31978;SDS011;18502;43.574;1.276;2022-09-09T14:05:38;5.50;;;0.98;;
31978;SDS011;18502;43.574;1.276;2022-09-09T14:08:05;4.07;;;1.13;;
31978;SDS011;18502;43.574;1.276;2022-09-09T14:10:32;3.63;;;1.38;;
31978;SDS011;18502;43.574;1.276;2022-09-09T14:13:00;5.85;;;1.77;;
31978;SDS011;18502;43.574;1.276;2022-09-09T14:15:26;4.53;;;1.40;;
31978;SDS011;18502;43.574;1.276;2022-09-09T14:17:52;2.13;;;0.90;;
31978;SDS011;18502;43.574;1.276;2022-09-09T14:20:17;5.82;;;1.55;;
31978;SDS011;18502;43.574;1.276;2022-09-09T14:22:44;5.85;;;1.52;;
31978;SDS011;18502;43.574;1.276;2022-09-09T14:25:10;2.97;;;0.95;;
31978;SDS011;18502;43.574;1.276;2022-09-09T14:27:38;3.05;;;1.10;;
31978;SDS011;18502;43.574;1.276;2022-09-09T14:30:04;4.15;;;1.10;;
31978;SDS011;18502;43.574;1.276;2022-09-09T14:32:31;4.68;;;1.02;;
31978;SDS011;18502;43.574;1.276;2022-09-09T14:34:58;6.30;;;1.30;;
31978;SDS011;18502;43.574;1.276;2022-09-09T14:37:23;3.25;;;1.25;;
31978;SDS011;18502;43.574;1.276;2022-09-09T14:39:49;3.67;;;1.20;;
31978;SDS011;18502;43.574;1.276;2022-09-09T14:42:15;3.78;;;1.20;;
31978;SDS011;18502;43.574;1.276;2022-09-09T14:44:41;4.10;;;1.40;;
31978;SDS011;18502;43.574;1.276;2022-09-09T14:47:07;5.40;;;1.35;;
31978;SDS011;18502;43.574;1.276;2022-09-09T14:49:34;4.20;;;1.38;;
31978;SDS011;18502;43.574;1.276;2022-09-09T14:52:00;5.25;;;1.40;;
31978;SDS011;18502;43.574;1.276;2022-09-09T14:54:26;4.75;;;1.23;;
31978;SDS011;18502;43.574;1.276;2022-09-09T14:56:53;4.10;;;1.17;;
31978;SDS011;18502;43.574;1.276;2022-09-09T14:59:19;4.93;;;1.20;;
31978;SDS011;18502;43.574;1.276;2022-09-09T15:01:44;2.80;;;1.02;;
31978;SDS011;18502;43.574;1.276;2022-09-09T15:04:10;3.50;;;1.20;;
31978;SDS011;18502;43.574;1.276;2022-09-09T15:06:37;3.22;;;1.00;;
31978;SDS011;18502;43.574;1.276;2022-09-09T15:09:04;4.95;;;1.30;;
31978;SDS011;18502;43.574;1.276;2022-09-09T15:11:32;4.65;;;1.10;;
31978;SDS011;18502;43.574;1.276;2022-09-09T15:14:02;2.95;;;0.82;;
31978;SDS011;18502;43.574;1.276;2022-09-09T15:16:32;4.55;;;1.27;;
31978;SDS011;18502;43.574;1.276;2022-09-09T15:18:59;5.47;;;0.90;;
31978;SDS011;18502;43.574;1.276;2022-09-09T15:21:27;3.45;;;1.05;;
31978;SDS011;18502;43.574;1.276;2022-09-09T15:23:54;5.30;;;1.17;;
31978;SDS011;18502;43.574;1.276;2022-09-09T15:26:21;6.20;;;1.65;;
31978;SDS011;18502;43.574;1.276;2022-09-09T15:28:47;3.83;;;1.33;;
31978;SDS011;18502;43.574;1.276;2022-09-09T15:31:21;4.63;;;1.40;;
31978;SDS011;18502;43.574;1.276;2022-09-09T15:36:29;4.72;;;1.60;;
31978;SDS011;18502;43.574;1.276;2022-09-09T15:39:04;4.95;;;1.25;;
31978;SDS011;18502;43.574;1.276;2022-09-09T15:41:32;3.88;;;1.20;;
31978;SDS011;18502;43.574;1.276;2022-09-09T15:43:58;4.40;;;1.20;;
31978;SDS011;18502;43.574;1.276;2022-09-09T15:49:13;3.28;;;1.00;;
31978;SDS011;18502;43.574;1.276;2022-09-09T15:51:41;4.72;;;1.30;;
31978;SDS011;18502;43.574;1.276;2022-09-09T15:54:09;4.03;;;1.30;;
31978;SDS011;18502;43.574;1.276;2022-09-09T15:56:41;2.25;;;1.10;;
31978;SDS011;18502;43.574;1.276;2022-09-09T15:59:08;2.85;;;1.08;;
31978;SDS011;18502;43.574;1.276;2022-09-09T16:01:34;2.30;;;0.93;;
31978;SDS011;18502;43.574;1.276;2022-09-09T16:04:00;2.92;;;1.00;;
31978;SDS011;18502;43.574;1.276;2022-09-09T16:06:27;1.77;;;0.77;;
31978;SDS011;18502;43.574;1.276;2022-09-09T16:08:54;4.13;;;1.15;;
31978;SDS011;18502;43.574;1.276;2022-09-09T16:11:22;2.67;;;1.02;;
31978;SDS011;18502;43.574;1.276;2022-09-09T16:13:50;2.40;;;1.00;;
31978;SDS011;18502;43.574;1.276;2022-09-09T16:16:19;2.92;;;0.80;;
31978;SDS011;18502;43.574;1.276;2022-09-09T16:18:50;2.63;;;1.00;;
31978;SDS011;18502;43.574;1.276;2022-09-09T16:21:19;2.33;;;0.80;;
31978;SDS011;18502;43.574;1.276;2022-09-09T16:23:49;4.55;;;1.30;;
31978;SDS011;18502;43.574;1.276;2022-09-09T16:26:16;3.58;;;0.88;;
31978;SDS011;18502;43.574;1.276;2022-09-09T16:28:43;2.97;;;0.90;;
31978;SDS011;18502;43.574;1.276;2022-09-09T16:31:10;2.60;;;0.70;;
31978;SDS011;18502;43.574;1.276;2022-09-09T16:33:38;3.78;;;1.05;;
31978;SDS011;18502;43.574;1.276;2022-09-09T16:36:11;4.40;;;1.08;;
31978;SDS011;18502;43.574;1.276;2022-09-09T16:38:39;3.83;;;1.00;;
31978;SDS011;18502;43.574;1.276;2022-09-09T16:41:05;3.80;;;0.60;;
31978;SDS011;18502;43.574;1.276;2022-09-09T16:43:33;7.03;;;1.30;;
31978;SDS011;18502;43.574;1.276;2022-09-09T16:46:00;4.10;;;0.95;;
31978;SDS011;18502;43.574;1.276;2022-09-09T16:48:26;5.30;;;0.90;;
31978;SDS011;18502;43.574;1.276;2022-09-09T16:51:04;2.83;;;0.98;;
31978;SDS011;18502;43.574;1.276;2022-09-09T16:53:32;2.75;;;0.80;;
31978;SDS011;18502;43.574;1.276;2022-09-09T16:55:58;8.48;;;1.80;;
31978;SDS011;18502;43.574;1.276;2022-09-09T16:58:29;5.85;;;1.20;;
31978;SDS011;18502;43.574;1.276;2022-09-09T17:00:59;2.13;;;0.63;;
31978;SDS011;18502;43.574;1.276;2022-09-09T17:03:26;2.20;;;0.55;;
31978;SDS011;18502;43.574;1.276;2022-09-09T17:05:52;4.28;;;0.93;;
31978;SDS011;18502;43.574;1.276;2022-09-09T17:08:18;4.22;;;0.82;;
31978;SDS011;18502;43.574;1.276;2022-09-09T17:10:44;5.97;;;0.75;;
31978;SDS011;18502;43.574;1.276;2022-09-09T17:13:10;4.43;;;0.93;;
31978;SDS011;18502;43.574;1.276;2022-09-09T17:15:41;4.88;;;0.75;;
31978;SDS011;18502;43.574;1.276;2022-09-09T17:18:08;2.30;;;0.75;;
31978;SDS011;18502;43.574;1.276;2022-09-09T17:20:41;5.75;;;0.95;;
31978;SDS011;18502;43.574;1.276;2022-09-09T17:23:10;2.58;;;0.80;;